createdAt,value
2022-08-03T00:00:25.664Z,96105.79
2022-08-03T00:03:02.751Z,96105.19
2022-08-03T00:05:29.443Z,96103.98
2022-08-03T00:07:56.047Z,96099.58
2022-08-03T00:10:22.832Z,96099.82
2022-08-03T00:12:50.272Z,96096.88
2022-08-03T00:15:17.192Z,96095.30
2022-08-03T00:17:53.066Z,96092.00
2022-08-03T00:20:24.335Z,96098.02
2022-08-03T00:22:51.802Z,96102.71
2022-08-03T00:25:18.769Z,96104.27
2022-08-03T00:27:45.363Z,96106.27
2022-08-03T00:30:12.164Z,96107.55
2022-08-03T00:32:45.007Z,96107.30
2022-08-03T00:35:18.231Z,96108.94
2022-08-03T00:37:54.145Z,96105.28
2022-08-03T00:40:21.698Z,96103.54
2022-08-03T00:42:54.161Z,96101.48
2022-08-03T00:45:23.516Z,96102.42
2022-08-03T00:47:50.179Z,96105.89
2022-08-03T00:50:18.582Z,96110.45
2022-08-03T00:52:46.649Z,96107.23
2022-08-03T00:55:14.057Z,96109.19
2022-08-03T00:57:42.279Z,96110.80
2022-08-03T01:00:11.626Z,96111.34
2022-08-03T01:02:39.470Z,96110.04
2022-08-03T01:05:08.498Z,96106.67
2022-08-03T01:07:50.424Z,96106.70
2022-08-03T01:10:28.111Z,96105.25
2022-08-03T01:14:01.334Z,96105.52
2022-08-03T01:16:55.080Z,96104.77
2022-08-03T01:19:24.513Z,96107.30
2022-08-03T01:22:21.476Z,96105.89
2022-08-03T01:25:25.784Z,96103.05
2022-08-03T01:28:20.211Z,96104.58
2022-08-03T01:30:48.216Z,96103.69
2022-08-03T01:33:23.740Z,96102.77
2022-08-03T01:35:58.606Z,96103.36
2022-08-03T01:38:41.486Z,96102.66
2022-08-03T01:41:13.159Z,96103.35
2022-08-03T01:44:27.726Z,96102.27
2022-08-03T01:46:32.950Z,96102.42
2022-08-03T01:49:09.242Z,96104.31
2022-08-03T01:52:03.301Z,96099.77
2022-08-03T01:54:30.134Z,96099.36
2022-08-03T01:56:59.019Z,96100.94
2022-08-03T01:59:28.560Z,96100.80
2022-08-03T02:02:32.413Z,96102.86
2022-08-03T02:05:02.998Z,96100.15
2022-08-03T02:07:32.553Z,96098.14
2022-08-03T02:10:00.895Z,96092.70
2022-08-03T02:12:32.043Z,96092.20
2022-08-03T02:15:00.954Z,96088.23
2022-08-03T02:17:38.586Z,96090.81
2022-08-03T02:20:12.972Z,96094.45
2022-08-03T02:22:41.424Z,96094.90
2022-08-03T02:25:10.741Z,96096.63
2022-08-03T02:27:43.852Z,96095.84
2022-08-03T02:30:13.224Z,96092.80
2022-08-03T02:32:43.391Z,96091.95
2022-08-03T02:35:12.969Z,96090.35
2022-08-03T02:37:49.812Z,96089.40
2022-08-03T02:40:19.900Z,96085.73
2022-08-03T02:42:51.032Z,96086.31
2022-08-03T02:45:19.747Z,96084.11
2022-08-03T02:47:54.017Z,96083.83
2022-08-03T02:50:23.945Z,96085.35
2022-08-03T02:52:52.730Z,96086.13
2022-08-03T02:55:22.319Z,96089.90
2022-08-03T02:57:51.018Z,96088.35
2022-08-03T03:00:28.089Z,96088.37
2022-08-03T03:02:58.446Z,96091.74
2022-08-03T03:05:52.602Z,96092.12
2022-08-03T03:08:17.713Z,96097.98
2022-08-03T03:10:46.756Z,96094.73
2022-08-03T03:13:15.590Z,96093.52
2022-08-03T03:15:44.686Z,96093.98
2022-08-03T03:18:12.310Z,96092.35
2022-08-03T03:20:40.389Z,96090.59
2022-08-03T03:23:08.773Z,96089.00
2022-08-03T03:25:36.566Z,96092.16
2022-08-03T03:28:06.228Z,96095.57
2022-08-03T03:30:34.170Z,96100.71
2022-08-03T03:33:02.219Z,96104.25
2022-08-03T03:35:30.881Z,96103.10
2022-08-03T03:38:06.133Z,96103.47
2022-08-03T03:40:35.076Z,96104.70
2022-08-03T03:43:02.731Z,96106.95
2022-08-03T03:45:31.180Z,96109.84
2022-08-03T03:48:01.144Z,96113.98
2022-08-03T03:50:29.552Z,96115.95
2022-08-03T03:52:56.172Z,96113.41
2022-08-03T03:55:23.196Z,96115.77
2022-08-03T03:57:50.327Z,96116.71
2022-08-03T04:00:18.443Z,96119.84
2022-08-03T04:02:45.697Z,96117.98
2022-08-03T04:05:31.805Z,96117.02
2022-08-03T04:08:19.914Z,96120.95
2022-08-03T04:11:01.942Z,96122.61
2022-08-03T04:13:36.373Z,96127.34
2022-08-03T04:16:04.824Z,96133.84
2022-08-03T04:18:34.724Z,96132.29
2022-08-03T04:21:04.106Z,96131.57
2022-08-03T04:23:35.069Z,96134.27
2022-08-03T04:26:03.563Z,96135.70
2022-08-03T04:28:32.879Z,96139.60
2022-08-03T04:31:03.025Z,96140.29
2022-08-03T04:33:33.029Z,96147.20
2022-08-03T04:36:06.340Z,96143.36
2022-08-03T04:38:38.491Z,96146.22
2022-08-03T04:41:07.168Z,96146.63
2022-08-03T04:43:34.791Z,96148.09
2022-08-03T04:46:03.947Z,96148.48
2022-08-03T04:48:30.857Z,96150.69
2022-08-03T04:50:57.746Z,96149.19
2022-08-03T04:53:24.534Z,96147.23
2022-08-03T04:55:51.252Z,96149.16
2022-08-03T04:58:17.898Z,96154.89
2022-08-03T05:00:44.965Z,96152.52
2022-08-03T05:03:23.575Z,96154.58
2022-08-03T05:06:01.887Z,96154.23
2022-08-03T05:08:36.888Z,96157.78
2022-08-03T05:11:17.228Z,96158.19
2022-08-03T05:13:45.441Z,96160.35
2022-08-03T05:16:13.404Z,96161.56
2022-08-03T05:18:41.663Z,96163.60
2022-08-03T05:21:09.827Z,96161.61
2022-08-03T05:23:37.372Z,96161.84
2022-08-03T05:26:04.329Z,96159.29
2022-08-03T05:28:31.003Z,96161.61
2022-08-03T05:30:57.672Z,96165.59
2022-08-03T05:33:24.259Z,96163.67
2022-08-03T05:35:56.016Z,96158.40
2022-08-03T05:38:34.895Z,96157.17
2022-08-03T05:41:21.960Z,96158.85
2022-08-03T05:43:54.804Z,96163.77
2022-08-03T05:46:22.479Z,96167.81
2022-08-03T05:48:49.533Z,96170.73
2022-08-03T05:51:16.960Z,96167.33
2022-08-03T05:53:43.834Z,96165.70
2022-08-03T05:56:13.758Z,96169.95
2022-08-03T05:58:44.014Z,96172.29
2022-08-03T06:01:11.234Z,96174.77
2022-08-03T06:03:38.054Z,96176.68
2022-08-03T06:06:05.536Z,96178.58
2022-08-03T06:08:35.003Z,96179.38
2022-08-03T06:11:02.077Z,96177.48
2022-08-03T06:13:31.195Z,96182.59
2022-08-03T06:15:58.555Z,96179.76
2022-08-03T06:18:26.508Z,96183.86
2022-08-03T06:20:53.882Z,96186.59
2022-08-03T06:23:25.304Z,96187.34
2022-08-03T06:26:10.137Z,96187.95
2022-08-03T06:28:51.544Z,96188.58
2022-08-03T06:31:24.339Z,96187.94
2022-08-03T06:34:34.877Z,96189.73
2022-08-03T06:36:39.585Z,96188.71
2022-08-03T06:39:08.221Z,96190.23
2022-08-03T06:41:37.554Z,96191.02
2022-08-03T06:44:08.564Z,96185.91
2022-08-03T06:46:38.274Z,96184.36
2022-08-03T06:49:07.721Z,96185.14
2022-08-03T06:52:04.117Z,96184.38
2022-08-03T06:54:33.247Z,96178.94
2022-08-03T06:57:00.800Z,96181.31
2022-08-03T07:00:08.706Z,96180.23
2022-08-03T07:02:19.079Z,96180.27
2022-08-03T07:04:49.855Z,96181.61
2022-08-03T07:07:18.386Z,96177.75
2022-08-03T07:09:57.193Z,96175.90
2022-08-03T07:12:29.197Z,96177.36
2022-08-03T07:15:00.741Z,96178.79
2022-08-03T07:17:30.498Z,96172.61
2022-08-03T07:19:57.915Z,96171.33
2022-08-03T07:22:25.160Z,96174.45
2022-08-03T07:24:51.853Z,96172.17
2022-08-03T07:27:18.717Z,96171.58
2022-08-03T07:29:45.513Z,96169.29
2022-08-03T07:32:33.128Z,96167.37
2022-08-03T07:35:25.057Z,96173.60
2022-08-03T07:38:52.755Z,96174.23
2022-08-03T07:42:40.318Z,96175.55
2022-08-03T07:45:27.781Z,96170.55
2022-08-03T07:49:16.587Z,96171.66
2022-08-03T07:53:08.148Z,96177.21
2022-08-03T07:57:00.750Z,96180.82
2022-08-03T08:00:30.562Z,96180.75
2022-08-03T08:03:57.692Z,96185.38
2022-08-03T08:07:12.879Z,96183.39
2022-08-03T08:10:59.228Z,96181.89
2022-08-03T08:14:27.826Z,96177.96
2022-08-03T08:17:57.323Z,96175.94
2022-08-03T08:21:24.153Z,96177.77
2022-08-03T08:25:09.889Z,96176.05
2022-08-03T08:28:40.992Z,96177.02
2022-08-03T08:32:08.212Z,96174.08
2022-08-03T08:35:54.888Z,96178.02
2022-08-03T08:39:41.161Z,96179.78
2022-08-03T08:42:58.833Z,96182.12
2022-08-03T08:46:05.240Z,96183.58
2022-08-03T08:49:32.698Z,96184.27
2022-08-03T08:53:01.092Z,96179.76
2022-08-03T08:56:47.661Z,96179.47
2022-08-03T09:00:34.041Z,96179.58
2022-08-03T09:04:03.354Z,96178.35
2022-08-03T09:07:30.399Z,96181.16
2022-08-03T09:10:58.771Z,96179.90
2022-08-03T09:14:39.413Z,96174.23
2022-08-03T09:18:33.516Z,96171.83
2022-08-03T09:22:23.269Z,96168.67
2022-08-03T09:26:19.401Z,96170.52
2022-08-03T09:29:27.273Z,96167.67
2022-08-03T09:32:24.540Z,96166.80
2022-08-03T09:35:54.869Z,96168.93
2022-08-03T09:38:28.008Z,96166.12
2022-08-03T09:41:28.693Z,96164.66
2022-08-03T09:44:37.311Z,96162.55
2022-08-03T09:47:50.462Z,96162.48
2022-08-03T09:50:37.941Z,96161.60
2022-08-03T09:54:20.395Z,96153.84
2022-08-03T09:57:39.509Z,96153.95
2022-08-03T10:00:51.037Z,96150.02
2022-08-03T10:04:03.847Z,96149.34
2022-08-03T10:06:40.668Z,96149.59
2022-08-03T10:09:31.857Z,96148.11
2022-08-03T10:12:36.074Z,96150.48
2022-08-03T10:16:22.545Z,96152.46
2022-08-03T10:20:11.255Z,96149.02
2022-08-03T10:23:58.249Z,96143.38
2022-08-03T10:27:17.116Z,96145.83
2022-08-03T10:30:31.475Z,96140.59
2022-08-03T10:33:57.373Z,96137.56
2022-08-03T10:36:48.706Z,96136.03
2022-08-03T10:39:20.443Z,96137.29
2022-08-03T10:41:59.939Z,96136.28
2022-08-03T10:45:35.866Z,96136.29
2022-08-03T10:48:30.591Z,96136.63
2022-08-03T10:51:41.836Z,96136.62
2022-08-03T10:54:58.229Z,96129.77
2022-08-03T10:57:50.056Z,96121.87
2022-08-03T11:00:50.616Z,96119.96
2022-08-03T11:03:19.081Z,96117.31
2022-08-03T11:05:48.914Z,96115.54
2022-08-03T11:08:28.323Z,96122.85
2022-08-03T11:10:57.822Z,96121.52
2022-08-03T11:13:27.866Z,96111.40
2022-08-03T11:16:03.829Z,96112.27
2022-08-03T11:18:32.963Z,96114.92
2022-08-03T11:21:00.782Z,96112.13
2022-08-03T11:24:02.729Z,96110.52
2022-08-03T11:26:30.856Z,96108.23
2022-08-03T11:29:29.386Z,96110.44
2022-08-03T11:31:56.895Z,96106.77
2022-08-03T11:34:24.492Z,96108.67
2022-08-03T11:37:27.580Z,96102.83
2022-08-03T11:39:58.420Z,96097.09
2022-08-03T11:42:26.508Z,96089.94
2022-08-03T11:44:55.687Z,96090.83
2022-08-03T11:47:26.902Z,96086.54
2022-08-03T11:49:58.875Z,96085.17
2022-08-03T11:52:28.970Z,96079.42
2022-08-03T11:54:56.955Z,96076.36
2022-08-03T11:59:01.306Z,96073.02
2022-08-03T12:00:30.588Z,96065.30
2022-08-03T12:03:00.371Z,96067.35
2022-08-03T12:05:51.529Z,96067.11
2022-08-03T12:08:28.146Z,96064.06
2022-08-03T12:11:06.128Z,96059.30
2022-08-03T12:14:44.982Z,96055.67
2022-08-03T12:16:34.854Z,96056.39
2022-08-03T12:19:06.244Z,96056.34
2022-08-03T12:21:33.641Z,96047.20
2022-08-03T12:24:03.618Z,96047.70
2022-08-03T12:26:58.705Z,96046.06
2022-08-03T12:29:28.191Z,96054.11
2022-08-03T12:31:58.390Z,96053.34
2022-08-03T12:34:48.198Z,96047.18
2022-08-03T12:37:29.349Z,96047.08
2022-08-03T12:40:09.416Z,96047.39
2022-08-03T12:42:39.599Z,96042.16
2022-08-03T12:45:27.758Z,96041.14
2022-08-03T12:48:00.051Z,96045.95
2022-08-03T12:50:34.969Z,96046.27
2022-08-03T12:53:07.890Z,96040.27
2022-08-03T12:55:57.586Z,96044.10
2022-08-03T12:58:35.646Z,96046.36
2022-08-03T13:01:05.225Z,96045.98
2022-08-03T13:03:46.041Z,96047.27
2022-08-03T13:06:19.622Z,96051.56
2022-08-03T13:08:47.567Z,96057.69
2022-08-03T13:11:22.058Z,96056.77
2022-08-03T13:13:50.535Z,96050.88
2022-08-03T13:16:19.487Z,96047.62
2022-08-03T13:18:46.598Z,96046.55
2022-08-03T13:21:16.499Z,96048.34
2022-08-03T13:23:43.624Z,96044.98
2022-08-03T13:26:11.670Z,96045.20
2022-08-03T13:28:39.340Z,96047.15
2022-08-03T13:31:07.106Z,96039.87
2022-08-03T13:33:33.854Z,96037.26
2022-08-03T13:36:00.560Z,96037.29
2022-08-03T13:38:27.437Z,96036.70
2022-08-03T13:40:55.350Z,96035.08
2022-08-03T13:43:22.715Z,96029.77
2022-08-03T13:45:53.596Z,96031.84
2022-08-03T13:48:37.318Z,96029.77
2022-08-03T13:51:11.844Z,96029.15
2022-08-03T13:53:51.856Z,96026.64
2022-08-03T13:56:19.427Z,96026.85
2022-08-03T13:58:46.998Z,96027.41
2022-08-03T14:01:13.769Z,96026.23
2022-08-03T14:03:41.486Z,96027.73
2022-08-03T14:06:08.167Z,96025.53
2022-08-03T14:08:34.913Z,96025.64
2022-08-03T14:11:01.729Z,96025.33
2022-08-03T14:13:38.430Z,96021.84
2022-08-03T14:16:05.535Z,96026.04
2022-08-03T14:18:36.891Z,96027.98
2022-08-03T14:21:08.520Z,96027.54
2022-08-03T14:23:37.383Z,96028.42
2022-08-03T14:26:08.133Z,96033.09
2022-08-03T14:28:35.515Z,96029.55
2022-08-03T14:31:02.530Z,96023.96
2022-08-03T14:33:29.311Z,96022.86
2022-08-03T14:35:56.625Z,96016.20
2022-08-03T14:38:24.469Z,96015.64
2022-08-03T14:40:52.611Z,96016.48
2022-08-03T14:43:22.000Z,96011.73
2022-08-03T14:45:53.075Z,96013.98
2022-08-03T14:50:29.226Z,96010.42
2022-08-03T14:51:07.719Z,96011.08
2022-08-03T14:53:34.530Z,96013.45
2022-08-03T14:56:02.532Z,96007.30
2022-08-03T14:58:31.492Z,96006.91
2022-08-03T15:00:58.422Z,96005.89
2022-08-03T15:03:25.421Z,96000.23
2022-08-03T15:05:53.296Z,95999.57
2022-08-03T15:08:20.828Z,95999.02
2022-08-03T15:10:49.825Z,95999.84
2022-08-03T15:13:19.677Z,95995.81
2022-08-03T15:15:49.323Z,95996.42
2022-08-03T15:18:16.067Z,95994.61
2022-08-03T15:20:46.021Z,95996.38
2022-08-03T15:23:14.978Z,95998.73
2022-08-03T15:26:07.030Z,95999.89
2022-08-03T15:28:30.864Z,96001.18
2022-08-03T15:30:58.080Z,96002.84
2022-08-03T15:33:24.820Z,96000.27
2022-08-03T15:35:52.439Z,95997.71
2022-08-03T15:38:19.615Z,95998.13
2022-08-03T15:40:46.253Z,95993.17
2022-08-03T15:43:13.037Z,95992.16
2022-08-03T15:45:39.989Z,95992.98
2022-08-03T15:48:06.668Z,95990.55
2022-08-03T15:50:33.315Z,95986.52
2022-08-03T15:53:00.037Z,95992.10
2022-08-03T15:55:26.736Z,95989.98
2022-08-03T15:59:04.635Z,95988.45
2022-08-03T16:00:41.575Z,95993.79
2022-08-03T16:03:08.743Z,95990.65
2022-08-03T16:05:35.950Z,95987.28
2022-08-03T16:08:04.357Z,95987.92
2022-08-03T16:10:32.331Z,95984.59
2022-08-03T16:12:59.402Z,95985.64
2022-08-03T16:15:26.002Z,95987.48
2022-08-03T16:17:52.644Z,95990.63
2022-08-03T16:20:34.269Z,95992.17
2022-08-03T16:23:08.509Z,95991.31
2022-08-03T16:25:40.363Z,95990.46
2022-08-03T16:28:13.988Z,95988.89
2022-08-03T16:30:43.601Z,95994.55
2022-08-03T16:33:11.600Z,95997.00
2022-08-03T16:35:44.640Z,96001.45
2022-08-03T16:38:15.203Z,96002.60
2022-08-03T16:40:46.479Z,96007.27
2022-08-03T16:43:18.750Z,96008.94
2022-08-03T16:45:46.908Z,96007.73
2022-08-03T16:48:14.783Z,96011.33
2022-08-03T16:50:41.507Z,96013.40
2022-08-03T16:53:10.150Z,96011.94
2022-08-03T16:55:53.302Z,96014.76
2022-08-03T16:58:34.607Z,96016.20
2022-08-03T17:01:20.791Z,96019.33
2022-08-03T17:04:02.978Z,96019.33
2022-08-03T17:06:35.041Z,96020.82
2022-08-03T17:09:09.056Z,96020.96
2022-08-03T17:11:48.717Z,96021.05
2022-08-03T17:14:17.272Z,96020.23
2022-08-03T17:16:51.943Z,96024.39
2022-08-03T17:19:21.397Z,96026.61
2022-08-03T17:22:08.390Z,96029.52
2022-08-03T17:24:41.510Z,96030.36
2022-08-03T17:28:42.167Z,96034.15
2022-08-03T17:30:11.991Z,96032.84
2022-08-03T17:32:52.706Z,96031.98
2022-08-03T17:35:36.948Z,96035.30
2022-08-03T17:38:08.976Z,96034.61
2022-08-03T17:40:39.700Z,96036.84
2022-08-03T17:44:13.643Z,96035.52
2022-08-03T17:46:07.357Z,96035.90
2022-08-03T17:48:41.327Z,96037.72
2022-08-03T17:51:22.882Z,96039.41
2022-08-03T17:54:00.292Z,96042.11
2022-08-03T17:56:56.752Z,96043.70
2022-08-03T17:59:51.389Z,96044.67
2022-08-03T18:03:12.349Z,96046.96
2022-08-03T18:06:11.438Z,96052.25
2022-08-03T18:08:38.432Z,96055.33
2022-08-03T18:11:14.756Z,96058.84
2022-08-03T18:13:58.698Z,96060.16
2022-08-03T18:16:34.328Z,96066.19
2022-08-03T18:19:09.312Z,96070.17
2022-08-03T18:22:03.419Z,96073.45
2022-08-03T18:24:30.035Z,96077.18
2022-08-03T18:27:08.819Z,96077.83
2022-08-03T18:29:40.502Z,96078.93
2022-08-03T18:32:21.880Z,96081.75
2022-08-03T18:34:56.036Z,96080.16
2022-08-03T18:37:25.156Z,96081.39
2022-08-03T18:39:55.660Z,96089.71
2022-08-03T18:42:25.749Z,96090.48
2022-08-03T18:44:55.882Z,96090.91
2022-08-03T18:47:52.588Z,96094.45
2022-08-03T18:50:39.089Z,96095.78
2022-08-03T18:53:24.109Z,96100.35
2022-08-03T18:56:17.625Z,96104.36
2022-08-03T18:59:04.406Z,96104.52
2022-08-03T19:02:01.011Z,96106.02
2022-08-03T19:04:34.596Z,96108.51
2022-08-03T19:07:07.887Z,96108.49
2022-08-03T19:09:46.975Z,96112.21
2022-08-03T19:12:30.725Z,96113.06
2022-08-03T19:15:04.529Z,96119.07
2022-08-03T19:17:39.700Z,96115.66
2022-08-03T19:20:08.639Z,96117.77
2022-08-03T19:22:39.173Z,96118.15
2022-08-03T19:25:12.597Z,96119.89
2022-08-03T19:27:39.878Z,96118.48
2022-08-03T19:35:13.299Z,96125.20
2022-08-03T19:42:39.612Z,96128.36
2022-08-03T19:59:30.114Z,96129.92
2022-08-03T20:06:26.731Z,96128.89
2022-08-03T20:13:52.079Z,96130.23
2022-08-03T20:20:58.845Z,96126.20
2022-08-03T20:28:50.588Z,96119.71
2022-08-03T20:31:20.843Z,96120.28
2022-08-03T20:34:11.342Z,96121.52
2022-08-03T20:36:44.360Z,96124.73
2022-08-03T20:39:13.344Z,96121.99
2022-08-03T20:41:40.887Z,96122.30
2022-08-03T20:44:08.655Z,96120.55
2022-08-03T20:46:53.323Z,96124.27
2022-08-03T20:49:29.175Z,96119.45
2022-08-03T20:52:18.884Z,96119.51
2022-08-03T20:54:50.981Z,96118.09
2022-08-03T20:57:19.395Z,96116.41
2022-08-03T20:59:50.323Z,96115.90
2022-08-03T21:02:29.588Z,96116.77
2022-08-03T21:05:03.299Z,96119.92
2022-08-03T21:08:16.254Z,96119.09
2022-08-03T21:10:53.771Z,96120.46
2022-08-03T21:14:13.560Z,96118.77
2022-08-03T21:16:45.715Z,96113.85
2022-08-03T21:19:16.414Z,96114.77
2022-08-03T21:22:08.189Z,96118.72
2022-08-03T21:25:43.218Z,96119.77
2022-08-03T21:29:14.597Z,96123.58
2022-08-03T21:33:02.212Z,96127.52
2022-08-03T21:36:49.744Z,96131.82
2022-08-03T21:40:37.300Z,96131.48
2022-08-03T21:44:28.752Z,96139.11
2022-08-03T21:48:16.640Z,96142.30
2022-08-03T21:52:04.283Z,96144.45
2022-08-03T21:55:51.911Z,96147.92
2022-08-03T21:59:44.882Z,96145.66
2022-08-03T22:03:33.119Z,96148.45
2022-08-03T22:07:40.775Z,96147.42
2022-08-03T22:11:28.368Z,96147.70
2022-08-03T22:15:16.012Z,96145.14
2022-08-03T22:19:03.531Z,96143.13
2022-08-03T22:22:54.962Z,96141.26
2022-08-03T22:26:43.385Z,96142.38
2022-08-03T22:30:30.946Z,96137.84
2022-08-03T22:34:01.880Z,96139.42
2022-08-03T22:37:49.369Z,96141.33
2022-08-03T22:41:40.286Z,96144.05
2022-08-03T22:46:06.139Z,96146.38
2022-08-03T22:49:35.362Z,96146.29
2022-08-03T22:52:59.493Z,96145.83
2022-08-03T22:55:27.059Z,96146.14
2022-08-03T22:58:25.707Z,96154.70
2022-08-03T23:01:18.164Z,96153.14
2022-08-03T23:04:00.592Z,96150.98
2022-08-03T23:06:38.056Z,96151.80
2022-08-03T23:09:10.805Z,96155.81
2022-08-03T23:11:45.253Z,96153.80
2022-08-03T23:14:15.694Z,96151.30
2022-08-03T23:16:44.614Z,96154.25
2022-08-03T23:19:17.418Z,96151.38
2022-08-03T23:22:02.226Z,96151.14
2022-08-03T23:24:35.441Z,96146.55
2022-08-03T23:27:07.162Z,96146.20
2022-08-03T23:29:39.536Z,96149.56
2022-08-03T23:32:06.962Z,96146.04
2022-08-03T23:34:52.520Z,96152.45
2022-08-03T23:37:22.241Z,96151.93
2022-08-03T23:39:49.393Z,96153.75
2022-08-03T23:42:18.566Z,96152.08
2022-08-03T23:44:46.916Z,96151.39
2022-08-03T23:47:14.258Z,96156.20
2022-08-03T23:49:41.139Z,96156.64
2022-08-03T23:52:29.303Z,96159.40
2022-08-03T23:55:34.401Z,96158.67
2022-08-03T23:58:22.485Z,96156.50
